createdAt,value
2018-03-20T00:00:32.841Z,20
2018-03-20T00:05:32.810Z,17
2018-03-20T00:10:32.857Z,18
2018-03-20T00:15:32.884Z,18
2018-03-20T00:20:32.949Z,22
2018-03-20T00:25:32.766Z,22
2018-03-20T00:30:32.996Z,21
2018-03-20T00:35:32.667Z,21
2018-03-20T00:40:32.951Z,21
2018-03-20T00:45:32.823Z,21
2018-03-20T00:50:32.664Z,14
2018-03-20T00:55:32.755Z,19
2018-03-20T01:00:32.882Z,28
2018-03-20T01:05:32.801Z,27
2018-03-20T01:10:32.696Z,24
2018-03-20T01:15:32.641Z,22
2018-03-20T01:20:32.603Z,31
2018-03-20T01:25:32.788Z,21
2018-03-20T01:30:32.920Z,26
2018-03-20T01:35:32.797Z,26
2018-03-20T01:40:32.748Z,26
2018-03-20T01:45:32.894Z,19
2018-03-20T01:50:32.883Z,19
2018-03-20T01:55:32.717Z,34
2018-03-20T02:00:32.785Z,26
2018-03-20T02:05:32.564Z,30
2018-03-20T02:10:32.639Z,23
2018-03-20T02:15:32.763Z,23
2018-03-20T02:20:32.424Z,22
2018-03-20T02:25:32.683Z,20
2018-03-20T02:30:32.387Z,32
2018-03-20T02:35:32.518Z,22
2018-03-20T02:40:32.546Z,24
2018-03-20T02:45:32.409Z,23
2018-03-20T02:50:32.361Z,19
2018-03-20T02:55:32.726Z,15
2018-03-20T03:00:32.771Z,17
2018-03-20T03:05:32.754Z,17
2018-03-20T03:10:32.960Z,17
2018-03-20T03:15:32.646Z,21
2018-03-20T03:20:32.527Z,34
2018-03-20T03:25:32.745Z,19
2018-03-20T03:30:32.527Z,21
2018-03-20T03:35:32.322Z,20
2018-03-20T03:40:32.434Z,17
2018-03-20T03:45:32.701Z,15
2018-03-20T03:50:32.386Z,20
2018-03-20T03:55:32.323Z,14
2018-03-20T04:00:32.500Z,14
2018-03-20T04:05:32.602Z,19
2018-03-20T04:10:32.510Z,10
2018-03-20T04:15:32.614Z,11
2018-03-20T04:20:32.295Z,5
2018-03-20T04:25:32.303Z,17
2018-03-20T04:30:32.381Z,13
2018-03-20T04:35:32.194Z,9
2018-03-20T04:40:32.515Z,9
2018-03-20T04:45:32.488Z,13
2018-03-20T04:50:32.490Z,13
2018-03-20T04:55:32.430Z,13
2018-03-20T05:00:32.665Z,13
2018-03-20T05:05:32.320Z,13
2018-03-20T05:10:32.456Z,8
2018-03-20T05:15:32.276Z,8
2018-03-20T05:20:32.216Z,8
2018-03-20T05:25:32.283Z,8
2018-03-20T05:30:32.511Z,8
2018-03-20T05:35:32.212Z,9
2018-03-20T05:40:32.145Z,9
2018-03-20T05:45:32.541Z,9
2018-03-20T05:50:32.199Z,5
2018-03-20T05:55:32.074Z,5
2018-03-20T06:00:32.406Z,12
2018-03-20T06:05:32.364Z,12
2018-03-20T06:10:32.144Z,12
2018-03-20T06:15:32.397Z,12
2018-03-20T06:20:32.451Z,12
2018-03-20T06:25:32.098Z,12
2018-03-20T06:30:32.199Z,12
2018-03-20T06:35:32.334Z,12
2018-03-20T06:40:32.172Z,12
2018-03-20T06:45:32.037Z,8
2018-03-20T06:50:32.060Z,8
2018-03-20T06:55:32.251Z,8
2018-03-20T07:00:32.207Z,6
2018-03-20T07:05:32.409Z,9
2018-03-20T07:10:32.364Z,12
2018-03-20T07:15:32.313Z,7
2018-03-20T07:20:32.130Z,6
2018-03-20T07:25:32.026Z,7
2018-03-20T07:30:32.188Z,7
2018-03-20T07:35:32.218Z,12
2018-03-20T07:40:31.957Z,12
2018-03-20T07:45:32.107Z,12
2018-03-20T07:50:32.203Z,11
2018-03-20T07:55:32.231Z,11
2018-03-20T08:00:31.943Z,3
2018-03-20T08:05:32.191Z,3
2018-03-20T08:10:32.213Z,3
2018-03-20T08:15:32.147Z,10
2018-03-20T08:20:32.091Z,10
2018-03-20T08:25:32.151Z,9
2018-03-20T08:30:31.920Z,9
2018-03-20T08:35:32.049Z,9
2018-03-20T08:40:31.976Z,9
2018-03-20T08:45:32.184Z,1
2018-03-20T08:50:31.986Z,6
2018-03-20T08:55:31.901Z,2
2018-03-20T09:00:32.220Z,3
2018-03-20T09:05:31.868Z,2
2018-03-20T09:10:32.074Z,1
2018-03-20T09:15:32.130Z,2
2018-03-20T09:20:31.943Z,2
2018-03-20T09:25:32.074Z,3
2018-03-20T09:30:31.946Z,4
2018-03-20T09:35:32.100Z,3
2018-03-20T09:40:31.912Z,6
2018-03-20T09:45:32.106Z,1
2018-03-20T09:50:32.036Z,2
2018-03-20T09:55:31.898Z,3
2018-03-20T10:00:31.981Z,3
2018-03-20T10:05:31.750Z,10
2018-03-20T10:10:31.975Z,1
2018-03-20T10:15:31.849Z,1
2018-03-20T10:20:31.999Z,1
2018-03-20T10:25:31.734Z,2
2018-03-20T10:30:31.810Z,4
2018-03-20T10:35:32.073Z,2
2018-03-20T10:40:31.725Z,2
2018-03-20T10:45:31.781Z,7
2018-03-20T10:50:31.917Z,1
2018-03-20T10:55:31.877Z,7
2018-03-20T11:00:31.775Z,6
2018-03-20T11:05:31.873Z,3
2018-03-20T11:10:31.684Z,4
2018-03-20T11:15:32.126Z,2
2018-03-20T11:20:31.894Z,5
2018-03-20T11:25:31.810Z,3
2018-03-20T11:30:31.637Z,2
2018-03-20T11:35:31.621Z,5
2018-03-20T11:40:31.936Z,5
2018-03-20T11:45:31.896Z,5
2018-03-20T11:50:31.755Z,2
2018-03-20T11:55:31.904Z,2
2018-03-20T12:00:31.586Z,2
2018-03-20T12:05:31.690Z,2
2018-03-20T12:10:31.910Z,1
2018-03-20T12:15:31.707Z,1
2018-03-20T12:20:31.811Z,2
2018-03-20T12:25:31.638Z,0
2018-03-20T12:30:31.518Z,1
2018-03-20T12:35:31.687Z,2
2018-03-20T12:40:31.587Z,2
2018-03-20T12:45:31.571Z,2
2018-03-20T12:50:31.624Z,1
2018-03-20T12:55:31.715Z,1
2018-03-20T13:00:31.768Z,3
2018-03-20T13:05:31.808Z,4
2018-03-20T13:10:31.497Z,1
2018-03-20T13:15:31.816Z,0
2018-03-20T13:20:31.731Z,2
2018-03-20T13:25:31.519Z,0
2018-03-20T13:30:31.713Z,2
2018-03-20T13:35:31.545Z,2
2018-03-20T13:40:31.718Z,6
2018-03-20T13:45:31.395Z,4
2018-03-20T13:50:31.615Z,1
2018-03-20T13:55:31.420Z,1
2018-03-20T14:00:31.515Z,1
2018-03-20T14:05:31.558Z,1
2018-03-20T14:10:31.662Z,0
2018-03-20T14:15:31.395Z,1
2018-03-20T14:20:31.404Z,1
2018-03-20T14:25:31.559Z,2
2018-03-20T14:30:31.428Z,4
2018-03-20T14:35:31.538Z,4
2018-03-20T14:40:31.665Z,2
2018-03-20T14:45:31.362Z,2
2018-03-20T14:50:31.586Z,2
2018-03-20T14:55:31.302Z,0
2018-03-20T15:00:31.475Z,1
2018-03-20T15:05:31.433Z,3
2018-03-20T15:10:31.423Z,0
2018-03-20T15:15:31.585Z,3
2018-03-20T15:20:31.332Z,5
2018-03-20T15:25:31.465Z,4
2018-03-20T15:30:31.543Z,4
2018-03-20T15:35:31.693Z,2
2018-03-20T15:40:31.585Z,1
2018-03-20T15:45:31.443Z,2
2018-03-20T15:50:31.276Z,1
2018-03-20T15:55:31.439Z,2
2018-03-20T16:00:31.380Z,2
2018-03-20T16:05:31.205Z,1
2018-03-20T16:10:31.568Z,1
2018-03-20T16:15:31.310Z,0
2018-03-20T16:20:31.446Z,1
2018-03-20T16:25:31.420Z,2
2018-03-20T16:30:31.166Z,1
2018-03-20T16:35:31.332Z,3
2018-03-20T16:40:31.286Z,2
2018-03-20T16:45:31.442Z,2
2018-03-20T16:50:31.364Z,2
2018-03-20T16:55:31.118Z,4
2018-03-20T17:00:31.461Z,2
2018-03-20T17:05:31.178Z,1
2018-03-20T17:10:31.113Z,1
2018-03-20T17:15:31.291Z,1
2018-03-20T17:20:31.419Z,2
2018-03-20T17:25:31.312Z,1
2018-03-20T17:30:31.467Z,2
2018-03-20T17:35:31.052Z,2
2018-03-20T17:40:31.370Z,1
2018-03-20T17:45:31.249Z,1
2018-03-20T17:50:31.130Z,4
2018-03-20T17:55:31.338Z,2
2018-03-20T18:00:31.257Z,6
2018-03-20T18:05:31.008Z,1
2018-03-20T18:10:31.435Z,2
2018-03-20T18:15:30.954Z,7
2018-03-20T18:20:31.223Z,5
2018-03-20T18:25:31.018Z,5
2018-03-20T18:30:31.074Z,3
2018-03-20T18:35:31.467Z,3
2018-03-20T18:40:31.050Z,6
2018-03-20T18:45:30.978Z,6
2018-03-20T18:50:31.289Z,11
2018-03-20T18:55:30.915Z,7
2018-03-20T19:00:31.298Z,5
2018-03-20T19:05:30.901Z,8
2018-03-20T19:10:31.192Z,3
2018-03-20T19:15:31.003Z,8
2018-03-20T19:20:31.199Z,9
2018-03-20T19:25:31.257Z,9
2018-03-20T19:30:31.039Z,6
2018-03-20T19:35:31.094Z,8
2018-03-20T19:40:31.250Z,7
2018-03-20T19:45:31.041Z,7
2018-03-20T19:50:31.231Z,13
2018-03-20T19:55:30.947Z,11
2018-03-20T20:00:31.037Z,15
2018-03-20T20:05:31.141Z,10
2018-03-20T20:10:31.154Z,17
2018-03-20T20:15:31.032Z,10
2018-03-20T20:20:30.958Z,26
2018-03-20T20:25:30.871Z,9
2018-03-20T20:30:31.104Z,12
2018-03-20T20:35:31.079Z,11
2018-03-20T20:40:31.290Z,16
2018-03-20T20:45:31.221Z,15
2018-03-20T20:50:30.929Z,7
2018-03-20T20:55:30.978Z,15
2018-03-20T21:00:30.859Z,7
2018-03-20T21:16:02.524Z,15
2018-03-20T21:21:01.103Z,7
2018-03-20T21:26:04.096Z,11
2018-03-20T21:31:01.442Z,7
2018-03-20T21:36:02.775Z,8
2018-03-20T21:41:01.179Z,12
2018-03-20T21:46:05.789Z,12
2018-03-20T21:51:01.319Z,12
2018-03-20T21:56:01.389Z,12
2018-03-20T22:01:03.721Z,15
2018-03-20T22:06:02.719Z,15
2018-03-20T22:11:01.508Z,14
2018-03-20T22:16:01.144Z,14
2018-03-20T22:21:01.112Z,20
2018-03-20T22:26:01.061Z,12
2018-03-20T22:31:01.224Z,11
2018-03-20T22:36:01.190Z,15
2018-03-20T22:41:01.226Z,15
2018-03-20T22:46:01.543Z,17
2018-03-20T22:51:00.818Z,14
2018-03-20T22:56:01.082Z,15
2018-03-20T23:01:01.343Z,14
2018-03-20T23:06:01.047Z,15
2018-03-20T23:11:00.947Z,23
2018-03-20T23:16:01.002Z,18
2018-03-20T23:21:01.262Z,19
2018-03-20T23:26:00.669Z,16
2018-03-20T23:31:01.220Z,12
2018-03-20T23:36:00.634Z,14
2018-03-20T23:41:01.021Z,14
2018-03-20T23:46:00.563Z,14
2018-03-20T23:51:00.715Z,14
2018-03-20T23:56:01.059Z,22
